CheckWX is a tool to help pilots better visualize weather data.  It is not intended as a substitute for an official pre-flight weather briefing.

16:12:23 UTC

KPAM METAR
Tyndall AFB Airport
Panama City, Florida, USA
Current

16 mins ago

KPAM 221556Z AUTO 21009KT 10SM CLR 30/23 A3003 RMK AO2 LTG DSNT S SLP172 T03030232 $
Observed
Jul-22 @ 15:56 UTC
Wind
  • 210° at 9 KTS
Visibility
10 SM
Flight Rules
VFR
Cloud Levels
  • Clear skies
Temperature
30°C / 86°F
Dewpoint
23°C / 73°F
Heat Index
34°C / 93°F
Humidity
66%
Altimeter
30.03" Hg
Pressure
1016.92 hPa
Previous

1 hour ago

KPAM 221456Z AUTO 00000KT 10SM CLR 29/23 A3002 RMK AO2 SLP169 60000 T02910225 50001 $
Observed
Jul-22 @ 14:56 UTC
Visibility
10 SM
Flight Rules
VFR
Cloud Levels
  • Clear skies
Temperature
29°C / 84°F
Dewpoint
23°C / 73°F
Heat Index
32°C / 90°F
Humidity
70%
Altimeter
30.02" Hg
Pressure
1016.62 hPa
Previous

2 hours ago

KPAM 221356Z AUTO 03003KT 10SM CLR 29/23 A3003 RMK AO2 SLP172 T02860230 CHINO RWY32 $
Observed
Jul-22 @ 13:56 UTC
Wind
  • 030° at 3 KTS
Visibility
10 SM
Flight Rules
VFR
Cloud Levels
  • Clear skies
Temperature
29°C / 84°F
Dewpoint
23°C / 73°F
Heat Index
32°C / 90°F
Humidity
70%
Altimeter
30.03" Hg
Pressure
1016.92 hPa